Terminal Aerodrome Forecast
Issued by NWS

Home | Current Version | Previous Version | Text Only | Print | Product List | Glossary Off
Versions: 1 2 3 4 5 6 7 8 9 10 11 12 13 14 15 16 17 18 19 20 21 22 23 24

633
FTUS44 KOUN 211733
TAFLAW
TAF
KLAW 211733Z 2118/2218 14009KT P6SM OVC200
     FM220000 14011G19KT P6SM OVC120
      TEMPO 2200/2203 4SM -RA OVC025
     FM220300 15012G21KT P6SM -RA OVC070
     FM220600 16013G21KT 6SM -RA OVC022
     FM220900 15013G24KT 4SM -RA OVC007
     FM221200 16013G23KT 4SM BR OVC006 PROB30 2212/2218 2SM -SHRA
      OVC003=

USA.gov is the U.S. government's official web portal to all federal, state and local government web resources and services.